Time;durP1;ratioP1;P1;durP2;ratioP2;P2;SDS_P1;SDS_P2;PMS_P1;PMS_P2;Temp;Humidity;BMP_temperature;BMP_pressure;BME280_temperature;BME280_humidity;BME280_pressure;Samples;Min_cycle;Max_cycle;Signal;HPM_P1;HPM_P2
2022/09/29 00:01:47;;;;;;;5.78;2.40;;;;;;;19.97;73.60;99510.75;4994348;28;20097;-72
2022/09/29 00:04:13;;;;;;;5.47;2.08;;;;;;;19.98;74.00;99513.34;5010115;28;20037;-74
2022/09/29 00:06:38;;;;;;;5.70;2.20;;;;;;;19.92;73.92;99502.97;5013530;28;20029;-71
2022/09/29 00:09:04;;;;;;;3.95;1.92;;;;;;;19.95;74.29;99518.63;5013209;28;20463;-71
2022/09/29 00:11:30;;;;;;;4.07;2.05;;;;;;;19.95;74.16;99512.53;5013227;28;20025;-72
2022/09/29 00:13:55;;;;;;;6.10;2.17;;;;;;;19.91;74.48;99516.09;5013470;28;20092;-74
2022/09/29 00:16:21;;;;;;;6.05;2.00;;;;;;;19.92;74.27;99509.97;5013101;28;20030;-71
2022/09/29 00:18:46;;;;;;;8.27;2.42;;;;;;;19.92;74.46;99513.44;5013406;28;20053;-71
2022/09/29 00:21:15;;;;;;;6.90;2.47;;;;;;;19.93;74.91;99511.69;5012993;28;20026;-71
2022/09/29 00:23:41;;;;;;;9.65;2.65;;;;;;;19.97;74.41;99508.13;5012002;28;20022;-74
2022/09/29 00:26:08;;;;;;;7.30;2.55;;;;;;;19.99;74.90;99512.44;5043727;28;20125;-72
2022/09/29 00:28:35;;;;;;;5.55;2.22;;;;;;;19.90;74.88;99506.50;4994429;28;20040;-75
2022/09/29 00:31:02;;;;;;;3.92;2.42;;;;;;;19.50;74.90;99442.53;5013060;28;20029;-73
2022/09/29 00:33:29;;;;;;;6.18;2.58;;;;;;;19.59;74.85;99473.81;5012989;28;20034;-70
2022/09/29 00:35:57;;;;;;;5.38;2.03;;;;;;;19.59;74.88;99501.72;5013117;28;20026;-71
2022/09/29 00:38:23;;;;;;;5.68;2.60;;;;;;;19.53;75.65;99507.94;5012331;28;20026;-72
2022/09/29 00:40:48;;;;;;;4.88;2.30;;;;;;;19.37;75.57;99484.59;5012617;28;20080;-73
2022/09/29 00:43:21;;;;;;;4.47;2.50;;;;;;;19.43;75.60;99501.09;5012514;28;20080;-75
2022/09/29 00:45:48;;;;;;;5.63;2.60;;;;;;;19.43;75.75;99494.13;5012644;28;20030;-70
2022/09/29 00:48:20;;;;;;;6.15;2.25;;;;;;;19.40;75.38;99492.41;4996180;28;20046;-73
2022/09/29 00:50:51;;;;;;;5.68;2.50;;;;;;;19.44;75.25;99498.47;5010243;28;20080;-73
2022/09/29 00:53:19;;;;;;;6.40;2.72;;;;;;;19.37;75.34;99492.44;5012363;28;20117;-73
2022/09/29 00:56:07;;;;;;;6.00;2.58;;;;;;;19.39;75.48;99495.06;5012373;28;20036;-71
2022/09/29 00:58:35;;;;;;;5.63;2.42;;;;;;;19.36;75.38;99493.31;5012419;28;20029;-70
2022/09/29 01:01:01;;;;;;;4.80;2.70;;;;;;;19.35;75.66;99490.75;5012446;28;20022;-71
2022/09/29 01:03:31;;;;;;;5.47;2.60;;;;;;;19.24;75.60;99480.44;5011828;28;20120;-74
2022/09/29 01:06:00;;;;;;;5.05;2.33;;;;;;;19.19;75.04;99458.69;5012348;28;20018;-73
2022/09/29 01:08:35;;;;;;;4.05;2.60;;;;;;;19.38;75.08;99494.19;5012296;28;20029;-71
2022/09/29 01:11:01;;;;;;;3.60;2.53;;;;;;;19.35;75.53;99491.63;5010917;28;20045;-74
2022/09/29 01:13:28;;;;;;;5.53;2.75;;;;;;;19.40;75.40;99486.28;5014176;28;20053;-73
2022/09/29 01:15:53;;;;;;;5.85;2.70;;;;;;;19.41;75.15;99482.78;5011532;28;20484;-72
2022/09/29 01:18:19;;;;;;;5.38;2.40;;;;;;;19.19;75.11;99450.84;5012007;28;20037;-71
2022/09/29 01:20:56;;;;;;;6.90;2.80;;;;;;;19.24;75.37;99467.38;5011663;28;20022;-71
2022/09/29 01:23:59;;;;;;;7.65;2.80;;;;;;;19.33;75.41;99487.28;5011849;28;20033;-74
2022/09/29 01:26:42;;;;;;;8.20;2.70;;;;;;;19.27;75.76;99496.09;5011204;28;20038;-75
2022/09/29 01:29:32;;;;;;;5.78;2.53;;;;;;;19.31;75.34;99495.16;5011971;28;20021;-71
2022/09/29 01:32:21;;;;;;;6.70;3.05;;;;;;;19.24;75.30;99504.00;5011853;28;20041;-73
2022/09/29 01:35:13;;;;;;;6.23;2.90;;;;;;;19.17;75.16;99497.97;5011154;28;20030;-71
2022/09/29 01:38:11;;;;;;;8.00;2.90;;;;;;;19.11;75.63;99498.06;5011531;28;20029;-73
2022/09/29 01:41:02;;;;;;;4.78;2.67;;;;;;;19.02;76.13;99493.81;5028744;28;20056;-71
2022/09/29 01:43:35;;;;;;;7.72;3.63;;;;;;;18.90;77.06;99499.16;5028614;28;20125;-71
2022/09/29 01:46:14;;;;;;;6.53;3.70;;;;;;;18.85;77.65;99491.38;5028541;28;20037;-73
2022/09/29 01:48:47;;;;;;;6.88;3.50;;;;;;;18.88;77.53;99503.56;5028433;28;20140;-75
2022/09/29 01:51:18;;;;;;;7.95;3.40;;;;;;;18.82;77.86;99499.28;5028303;28;20033;-73
2022/09/29 01:53:54;;;;;;;6.63;2.90;;;;;;;18.82;77.85;99499.28;5028647;28;20037;-71
2022/09/29 01:56:44;;;;;;;6.57;3.05;;;;;;;18.74;77.94;99485.41;5028239;28;20733;-71
2022/09/29 01:59:36;;;;;;;10.00;3.33;;;;;;;18.74;78.08;99493.25;5028347;28;20079;-74
2022/09/29 02:02:08;;;;;;;7.82;3.22;;;;;;;18.75;78.32;99501.09;5023983;28;20253;-73
2022/09/29 02:04:45;;;;;;;3.40;2.80;;;;;;;18.78;77.93;99502.81;5028465;28;20029;-74
2022/09/29 02:07:19;;;;;;;6.43;3.70;;;;;;;18.67;77.39;99482.03;5028136;28;20025;-74
2022/09/29 02:09:50;;;;;;;6.22;3.55;;;;;;;18.65;77.53;99494.22;5028181;28;20188;-72
2022/09/29 02:12:22;;;;;;;7.35;3.58;;;;;;;18.47;78.30;99495.31;5027779;28;20127;-71
2022/09/29 02:14:53;;;;;;;7.22;3.50;;;;;;;18.43;79.38;99501.47;5012486;28;20033;-71
2022/09/29 02:17:36;;;;;;;7.93;3.28;;;;;;;18.12;80.99;99499.19;5011414;28;20491;-72
2022/09/29 02:20:03;;;;;;;5.35;3.08;;;;;;;17.71;82.21;99456.84;5010637;28;20531;-73
2022/09/29 02:22:31;;;;;;;6.07;3.15;;;;;;;17.87;82.54;99494.13;5010448;28;20526;-72
2022/09/29 02:24:58;;;;;;;5.20;2.90;;;;;;;17.77;82.88;99508.16;5010936;28;20026;-73
2022/09/29 02:27:25;;;;;;;8.80;3.83;;;;;;;17.65;81.63;99513.47;5010754;28;20037;-73
2022/09/29 02:29:51;;;;;;;5.80;3.22;;;;;;;17.55;79.30;99513.53;5010714;28;20030;-74
2022/09/29 02:32:18;;;;;;;9.93;3.13;;;;;;;17.28;80.83;99525.00;5010362;28;20412;-74
2022/09/29 02:34:48;;;;;;;8.70;3.20;;;;;;;17.23;81.60;99526.78;5010426;28;20100;-73
2022/09/29 02:37:58;;;;;;;9.52;3.63;;;;;;;16.80;84.62;99527.81;5010204;28;20469;-70
2022/09/29 02:40:56;;;;;;;6.03;2.95;;;;;;;16.76;85.67;99524.34;5011136;28;20037;-71
2022/09/29 02:43:46;;;;;;;10.13;3.28;;;;;;;16.82;85.25;99526.03;5010167;28;20032;-71
2022/09/29 02:46:43;;;;;;;6.72;3.50;;;;;;;16.82;85.66;99524.31;5009887;28;20065;-71
2022/09/29 02:49:23;;;;;;;9.52;3.17;;;;;;;16.80;84.96;99527.81;5024477;28;20061;-71
2022/09/29 02:51:57;;;;;;;5.47;2.80;;;;;;;16.61;83.74;99522.66;5010214;28;20022;-73
2022/09/29 02:54:24;;;;;;;6.22;3.25;;;;;;;16.69;82.61;99534.81;5010423;28;20037;-70
2022/09/29 02:57:06;;;;;;;5.90;2.95;;;;;;;16.73;81.35;99534.75;5010666;28;20032;-70
2022/09/29 02:59:51;;;;;;;7.65;3.30;;;;;;;16.74;81.19;99533.03;5010184;28;20060;-71
2022/09/29 03:02:23;;;;;;;8.00;3.28;;;;;;;16.82;80.53;99531.25;5009552;28;20029;-71
2022/09/29 03:04:49;;;;;;;9.30;3.45;;;;;;;16.80;80.49;99522.59;5009242;28;20415;-73
2022/09/29 03:07:14;;;;;;;4.22;2.78;;;;;;;16.77;80.83;99523.47;5010210;28;20025;-75
2022/09/29 03:09:40;;;;;;;9.73;3.30;;;;;;;16.46;81.09;99507.94;5010380;28;20121;-71
2022/09/29 03:12:05;;;;;;;6.13;2.78;;;;;;;16.60;80.29;99523.53;5009845;28;20029;-71
2022/09/29 03:14:30;;;;;;;9.18;2.80;;;;;;;16.73;79.08;99539.97;5009677;28;20124;-72
2022/09/29 03:16:56;;;;;;;5.68;2.83;;;;;;;16.65;78.92;99542.63;5009810;28;20397;-71
2022/09/29 03:19:21;;;;;;;6.60;2.95;;;;;;;16.61;78.14;99537.41;5010266;28;20022;-71
2022/09/29 03:21:47;;;;;;;10.90;3.63;;;;;;;16.70;78.21;99541.72;5009872;28;20408;-71
2022/09/29 03:24:12;;;;;;;10.25;3.00;;;;;;;16.65;78.39;99554.78;5010269;28;20048;-73
2022/09/29 03:26:38;;;;;;;6.30;3.08;;;;;;;16.62;78.35;99547.84;5010082;28;20111;-73
2022/09/29 03:29:03;;;;;;;7.40;2.75;;;;;;;16.59;78.68;99537.41;5010211;28;20030;-72
2022/09/29 03:31:28;;;;;;;7.32;2.95;;;;;;;16.61;79.28;99548.72;5009925;28;20481;-70
2022/09/29 03:33:54;;;;;;;8.63;3.30;;;;;;;16.70;79.57;99549.53;5009796;28;20029;-73
2022/09/29 03:36:20;;;;;;;8.63;2.80;;;;;;;16.69;79.51;99545.22;5010107;28;20144;-71
2022/09/29 03:38:46;;;;;;;8.57;2.70;;;;;;;16.65;79.61;99541.75;5009416;28;20472;-71
2022/09/29 03:41:11;;;;;;;5.97;2.90;;;;;;;16.59;79.30;99537.41;5009561;28;20040;-70
2022/09/29 03:43:37;;;;;;;6.35;3.13;;;;;;;16.50;79.22;99543.53;5008041;28;20053;-73
2022/09/29 03:46:02;;;;;;;8.07;3.20;;;;;;;16.34;79.82;99549.63;5008814;28;20448;-73
2022/09/29 03:48:30;;;;;;;9.40;3.67;;;;;;;16.25;80.35;99542.72;5010340;28;20054;-75
2022/09/29 03:50:56;;;;;;;7.68;3.15;;;;;;;16.07;81.37;99559.19;5009654;28;20021;-75
2022/09/29 03:53:22;;;;;;;5.13;3.17;;;;;;;16.01;82.45;99552.28;5009222;28;20088;-74
2022/09/29 03:55:48;;;;;;;6.88;3.55;;;;;;;15.75;84.10;99548.75;5010101;28;20022;-71
2022/09/29 03:58:15;;;;;;;7.32;3.55;;;;;;;16.05;83.80;99554.84;5004908;28;20034;-73
2022/09/29 04:00:40;;;;;;;7.18;3.90;;;;;;;16.00;84.14;99553.13;5008232;28;20037;-74
2022/09/29 04:03:05;;;;;;;6.95;3.10;;;;;;;16.04;84.51;99566.13;5013476;28;20080;-73
2022/09/29 04:05:32;;;;;;;9.10;3.55;;;;;;;16.08;84.43;99560.94;5013487;28;20029;-73
2022/09/29 04:07:57;;;;;;;12.45;3.65;;;;;;;16.05;84.79;99544.44;5013591;28;20054;-73
2022/09/29 04:10:23;;;;;;;8.50;3.92;;;;;;;16.32;84.36;99569.59;5013141;28;20068;-73
2022/09/29 04:12:48;;;;;;;11.38;4.13;;;;;;;16.29;84.57;99554.84;5013189;28;20052;-73
2022/09/29 04:15:13;;;;;;;8.95;3.40;;;;;;;16.42;83.27;99565.25;5012670;28;20034;-73
2022/09/29 04:17:39;;;;;;;10.32;3.90;;;;;;;16.45;84.08;99565.25;5012484;28;20121;-74
2022/09/29 04:20:06;;;;;;;6.57;2.72;;;;;;;16.37;83.32;99548.75;5012688;28;20396;-73
2022/09/29 04:22:32;;;;;;;10.32;3.67;;;;;;;16.51;83.06;99562.66;5009226;28;20061;-73
2022/09/29 04:24:58;;;;;;;7.60;3.90;;;;;;;16.56;83.35;99563.50;5010346;28;20076;-73
2022/09/29 04:27:24;;;;;;;11.25;3.78;;;;;;;16.58;83.80;99564.34;5007705;28;20038;-74
2022/09/29 04:29:49;;;;;;;12.25;3.88;;;;;;;16.55;83.61;99563.47;5010251;28;20042;-74
2022/09/29 04:32:36;;;;;;;12.02;3.60;;;;;;;16.66;83.13;99566.97;5010821;28;20029;-74
2022/09/29 04:35:02;;;;;;;11.73;3.50;;;;;;;16.66;84.09;99566.97;5030041;28;20041;-73
2022/09/29 04:37:27;;;;;;;6.72;4.03;;;;;;;16.75;84.29;99573.88;5030366;28;20060;-73
2022/09/29 04:39:53;;;;;;;11.55;3.90;;;;;;;16.79;83.12;99570.38;5030242;28;20411;-74
2022/09/29 04:42:20;;;;;;;9.85;3.90;;;;;;;16.72;83.21;99560.84;5030196;28;20033;-73
2022/09/29 04:44:46;;;;;;;8.75;3.60;;;;;;;16.83;83.15;99569.50;5030361;28;20529;-73
2022/09/29 04:47:13;;;;;;;10.45;3.50;;;;;;;16.84;83.02;99570.38;5018690;28;20172;-74
2022/09/29 04:49:39;;;;;;;7.35;3.30;;;;;;;16.89;83.16;99574.69;5027387;28;20124;-75
2022/09/29 04:52:04;;;;;;;16.27;3.45;;;;;;;16.94;83.05;99572.97;5028411;28;20171;-73
2022/09/29 04:54:31;;;;;;;7.80;3.35;;;;;;;16.94;83.48;99577.31;5006477;28;20185;-74
2022/09/29 04:56:57;;;;;;;9.27;3.38;;;;;;;16.88;83.16;99578.16;5005141;28;20492;-73
2022/09/29 04:59:22;;;;;;;10.85;3.30;;;;;;;16.88;82.66;99588.59;5014362;28;20108;-74
2022/09/29 05:01:48;;;;;;;9.05;3.30;;;;;;;16.87;83.19;99589.47;5028656;28;20029;-71
2022/09/29 05:04:14;;;;;;;11.77;3.47;;;;;;;16.81;83.74;99574.72;5029199;28;20071;-73
2022/09/29 05:06:40;;;;;;;10.60;3.38;;;;;;;16.65;82.96;99560.00;5028918;28;20045;-73
2022/09/29 05:09:06;;;;;;;8.25;3.65;;;;;;;16.87;82.89;99592.06;5028845;28;20187;-74
2022/09/29 05:11:32;;;;;;;9.95;3.42;;;;;;;16.84;82.96;99591.22;5026705;28;20063;-71
2022/09/29 05:13:57;;;;;;;8.63;3.33;;;;;;;16.77;82.60;99580.81;5011488;28;20029;-73
2022/09/29 05:16:24;;;;;;;8.40;3.20;;;;;;;16.80;82.31;99604.25;5009403;28;20188;-74
2022/09/29 05:18:49;;;;;;;10.13;3.28;;;;;;;16.75;82.46;99597.34;5011679;28;20092;-74
2022/09/29 05:21:15;;;;;;;9.18;3.63;;;;;;;16.74;82.90;99595.59;5011865;28;20117;-72
2022/09/29 05:23:41;;;;;;;8.00;2.95;;;;;;;16.83;82.74;99608.59;5008810;28;20041;-75
2022/09/29 05:26:10;;;;;;;6.53;3.28;;;;;;;16.97;82.33;99606.88;5011274;28;20413;-74
2022/09/29 05:28:37;;;;;;;10.77;4.07;;;;;;;16.74;83.24;99573.00;5011722;28;20624;-74
2022/09/29 05:31:07;;;;;;;9.20;3.55;;;;;;;16.94;83.95;99593.81;5010234;28;20521;-74
2022/09/29 05:33:34;;;;;;;7.38;3.22;;;;;;;16.73;83.46;99539.13;5004243;28;20049;-78
2022/09/29 05:36:00;;;;;;;12.55;3.13;;;;;;;17.32;82.62;99598.91;5004422;28;20026;-74
2022/09/29 05:38:27;;;;;;;10.80;3.33;;;;;;;17.10;82.35;99568.56;5011006;28;20030;-76
2022/09/29 05:40:52;;;;;;;8.88;3.58;;;;;;;17.43;81.35;99592.75;5011227;28;20024;-74
2022/09/29 05:43:19;;;;;;;5.45;2.90;;;;;;;17.64;81.73;99606.56;5011166;28;20026;-73
2022/09/29 05:45:45;;;;;;;8.63;3.47;;;;;;;17.79;81.57;99595.16;5006139;28;20025;-71
2022/09/29 05:48:10;;;;;;;7.63;3.15;;;;;;;18.05;80.46;99607.19;5010652;28;20054;-72
2022/09/29 05:50:42;;;;;;;6.95;2.92;;;;;;;18.08;79.35;99608.03;5011139;28;20462;-72
2022/09/29 05:53:08;;;;;;;6.32;2.88;;;;;;;18.24;79.19;99603.56;5010788;28;20099;-74
2022/09/29 05:55:37;;;;;;;5.00;2.80;;;;;;;18.29;78.22;99572.16;5010633;28;20022;-73
2022/09/29 05:58:04;;;;;;;5.15;2.80;;;;;;;18.54;77.35;99591.09;5009759;28;20079;-75
2022/09/29 06:00:33;;;;;;;5.95;3.08;;;;;;;18.59;76.83;99588.41;5010945;28;20073;-71
2022/09/29 06:02:59;;;;;;;7.43;3.50;;;;;;;18.67;77.31;99581.38;5010682;28;20037;-72
2022/09/29 06:05:25;;;;;;;5.47;3.00;;;;;;;18.82;78.13;99600.41;5010898;28;20030;-72
2022/09/29 06:07:52;;;;;;;5.15;2.88;;;;;;;18.86;76.97;99589.88;5010892;28;20041;-74
2022/09/29 06:10:18;;;;;;;9.90;3.67;;;;;;;19.05;76.59;99608.00;5010914;28;20026;-73
2022/09/29 06:12:43;;;;;;;7.50;2.97;;;;;;;19.19;76.61;99598.25;5010581;28;20037;-71
2022/09/29 06:15:12;;;;;;;6.88;2.75;;;;;;;19.28;76.97;99597.25;5010774;28;20496;-74
2022/09/29 06:17:38;;;;;;;16.50;4.93;;;;;;;19.33;76.76;99594.59;5010433;28;20099;-74
2022/09/29 06:20:05;;;;;;;5.95;3.10;;;;;;;19.43;76.34;99598.81;5009632;28;20076;-74
2022/09/29 06:22:31;;;;;;;7.07;3.20;;;;;;;19.31;75.80;99589.34;5010426;28;20037;-73
2022/09/29 06:24:56;;;;;;;6.82;3.03;;;;;;;18.99;76.44;99537.44;5010288;28;20022;-70
2022/09/29 06:27:22;;;;;;;7.35;2.60;;;;;;;19.40;76.61;99597.09;5010450;28;20029;-73
2022/09/29 06:29:47;;;;;;;5.40;3.00;;;;;;;19.48;76.83;99601.38;5010566;28;20073;-72
2022/09/29 06:32:13;;;;;;;9.23;3.38;;;;;;;19.60;76.64;99605.56;5010340;28;20018;-72
2022/09/29 06:37:33;;;;;;;8.43;2.80;;;;;;;19.67;76.86;99594.97;5010127;28;20479;-74
2022/09/29 06:37:33;;;;;;;7.22;3.22;;;;;;;19.82;75.73;99604.34;5010182;28;20030;-71
2022/09/29 06:39:59;;;;;;;5.43;3.05;;;;;;;19.87;75.70;99572.91;5010014;28;20018;-71
2022/09/29 06:42:25;;;;;;;5.65;3.03;;;;;;;20.16;76.58;99601.25;5009975;28;20476;-73
2022/09/29 06:44:50;;;;;;;6.45;2.83;;;;;;;20.22;75.23;99595.03;5009454;28;20026;-70
2022/09/29 06:47:16;;;;;;;9.40;3.00;;;;;;;20.28;74.45;99573.13;5010154;28;20081;-71
2022/09/29 06:49:42;;;;;;;9.95;3.50;;;;;;;20.52;73.62;99554.31;4993769;28;20030;-74
2022/09/29 06:52:07;;;;;;;8.55;3.50;;;;;;;20.91;73.57;99586.84;4993585;28;20018;-74
2022/09/29 06:54:33;;;;;;;11.77;3.42;;;;;;;21.04;72.97;99590.09;5003700;28;20088;-72
2022/09/29 06:56:59;;;;;;;9.70;3.58;;;;;;;21.02;73.32;99561.25;5009780;28;20018;-71
2022/09/29 06:59:25;;;;;;;9.15;3.78;;;;;;;21.16;72.62;99553.94;5009709;28;20032;-74
2022/09/29 07:01:52;;;;;;;11.13;3.78;;;;;;;21.44;71.98;99587.47;5003912;28;20030;-72
2022/09/29 07:04:19;;;;;;;14.23;3.97;;;;;;;21.63;72.07;99587.09;4989684;28;20022;-73
2022/09/29 07:06:44;;;;;;;8.77;3.55;;;;;;;21.73;71.23;99583.38;4990327;28;20031;-75
2022/09/29 07:09:14;;;;;;;11.52;3.83;;;;;;;21.88;72.25;99591.78;5010149;28;20033;-71
2022/09/29 07:11:40;;;;;;;8.65;3.80;;;;;;;22.05;71.45;99586.13;5010760;28;20112;-72
2022/09/29 07:14:05;;;;;;;13.40;4.35;;;;;;;22.14;71.32;99596.41;5009825;28;20499;-74
2022/09/29 07:16:32;;;;;;;16.83;4.05;;;;;;;22.32;70.54;99594.22;5010082;28;20787;-74
2022/09/29 07:18:57;;;;;;;11.90;4.00;;;;;;;22.41;70.23;99596.66;5010120;28;20508;-74
2022/09/29 07:21:23;;;;;;;8.75;3.95;;;;;;;22.37;71.17;99568.66;5010236;28;20026;-75
2022/09/29 07:23:48;;;;;;;10.85;4.00;;;;;;;22.55;71.92;99596.28;5010319;28;20109;-73
2022/09/29 07:26:16;;;;;;;19.25;4.90;;;;;;;22.65;71.47;99587.22;5010812;28;20451;-75
2022/09/29 07:28:41;;;;;;;12.52;3.95;;;;;;;22.74;70.58;99575.59;5010417;28;20080;-71
2022/09/29 07:31:16;;;;;;;18.65;4.20;;;;;;;22.85;70.69;99593.72;5010403;28;20022;-72
2022/09/29 07:33:46;;;;;;;15.63;4.25;;;;;;;22.96;70.78;99591.66;5014388;28;20045;-74
2022/09/29 07:36:13;;;;;;;11.68;4.07;;;;;;;22.96;71.28;99586.38;5014280;28;20097;-75
2022/09/29 07:38:39;;;;;;;13.82;4.03;;;;;;;23.06;69.86;99593.09;5014522;28;20405;-74
2022/09/29 07:41:07;;;;;;;14.57;4.18;;;;;;;23.10;71.04;99586.00;5014602;28;20034;-72
2022/09/29 07:43:33;;;;;;;10.77;3.80;;;;;;;23.30;72.42;99595.97;5014208;28;20400;-71
2022/09/29 07:45:59;;;;;;;13.10;4.63;;;;;;;23.53;71.88;99591.81;5014456;28;20036;-72
2022/09/29 07:48:25;;;;;;;9.93;4.30;;;;;;;23.54;72.21;99597.00;5014167;28;20061;-72
2022/09/29 07:50:51;;;;;;;9.68;3.40;;;;;;;23.55;71.55;99574.16;5014033;28;20029;-72
2022/09/29 07:53:17;;;;;;;10.38;3.50;;;;;;;23.77;70.69;99600.69;5013950;28;20037;-74
2022/09/29 07:55:42;;;;;;;8.68;3.60;;;;;;;23.77;72.25;99591.94;5014136;28;20026;-75
2022/09/29 07:58:08;;;;;;;8.63;3.20;;;;;;;23.94;72.65;99609.88;5013830;28;20117;-74
2022/09/29 08:00:34;;;;;;;8.68;3.58;;;;;;;24.08;72.16;99593.63;5013843;28;20096;-72
2022/09/29 08:03:06;;;;;;;12.73;4.65;;;;;;;24.22;72.35;99594.88;5013893;28;20488;-77
2022/09/29 08:05:32;;;;;;;8.60;3.55;;;;;;;24.17;72.19;99565.16;5013833;28;20083;-74
2022/09/29 08:07:59;;;;;;;8.35;3.85;;;;;;;24.56;72.50;99587.56;5013784;28;20069;-73
2022/09/29 08:10:25;;;;;;;11.77;4.22;;;;;;;24.55;72.04;99559.47;5013575;28;20168;-72
2022/09/29 08:12:52;;;;;;;7.45;3.53;;;;;;;24.86;71.08;99588.31;5013905;28;20037;-72
2022/09/29 08:15:17;;;;;;;10.77;4.25;;;;;;;24.91;71.18;99589.91;5012919;28;20141;-75
2022/09/29 08:17:43;;;;;;;12.02;3.50;;;;;;;25.00;70.35;99595.72;5013831;28;20516;-76
2022/09/29 08:20:08;;;;;;;11.50;3.80;;;;;;;25.08;70.37;99589.28;5013440;28;20018;-75
2022/09/29 08:22:34;;;;;;;9.90;3.80;;;;;;;25.22;69.38;99600.19;5013592;28;20136;-72
2022/09/29 08:24:59;;;;;;;10.27;3.90;;;;;;;25.33;68.22;99587.44;5013312;28;20029;-74
2022/09/29 08:27:25;;;;;;;9.98;3.97;;;;;;;25.41;68.34;99588.94;5013362;28;20117;-76
2022/09/29 08:29:50;;;;;;;7.72;3.40;;;;;;;25.44;68.57;99589.69;5013530;28;20038;-76
2022/09/29 08:32:16;;;;;;;7.05;3.70;;;;;;;25.58;67.23;99602.38;5012626;28;20103;-74
2022/09/29 08:34:41;;;;;;;8.20;3.33;;;;;;;25.52;66.56;99578.81;5013196;28;20041;-72
2022/09/29 08:37:06;;;;;;;9.85;3.58;;;;;;;25.57;67.25;99584.81;5013445;28;20040;-71
2022/09/29 08:39:34;;;;;;;9.40;3.20;;;;;;;25.55;66.43;99573.44;5013107;28;20030;-74
2022/09/29 08:42:34;;;;;;;8.65;3.50;;;;;;;25.62;66.31;99584.59;5013057;28;20484;-71
2022/09/29 08:45:05;;;;;;;8.85;3.45;;;;;;;25.62;66.91;99581.97;5010554;28;20030;-72
2022/09/29 08:47:36;;;;;;;6.80;2.72;;;;;;;25.84;65.64;99584.63;5012094;28;20053;-74
2022/09/29 08:50:24;;;;;;;9.57;3.88;;;;;;;25.76;66.14;99578.78;5012721;28;20408;-72
2022/09/29 08:53:01;;;;;;;9.40;3.47;;;;;;;25.97;66.00;99583.19;4979642;28;20065;-74
2022/09/29 08:55:41;;;;;;;9.60;3.78;;;;;;;26.11;64.58;99584.44;4967149;28;20045;-72
2022/09/29 08:58:15;;;;;;;10.10;3.83;;;;;;;26.02;64.68;99547.75;4971449;28;20537;-74
2022/09/29 09:00:59;;;;;;;10.50;3.58;;;;;;;26.15;64.76;99578.09;4971429;28;20027;-75
2022/09/29 09:03:49;;;;;;;9.02;4.00;;;;;;;26.46;64.15;99580.28;4979853;28;20541;-73
2022/09/29 09:06:41;;;;;;;7.13;3.33;;;;;;;26.70;62.39;99576.66;4990606;28;20418;-74
2022/09/29 09:09:28;;;;;;;9.95;3.70;;;;;;;26.75;61.98;99564.09;4988961;28;20041;-71
2022/09/29 09:12:20;;;;;;;7.93;3.13;;;;;;;26.87;61.25;99560.03;4971270;28;20034;-74
2022/09/29 09:15:04;;;;;;;16.77;4.47;;;;;;;27.10;60.58;99556.31;4913551;29;20102;-71
2022/09/29 09:17:58;;;;;;;7.13;3.58;;;;;;;27.12;59.63;99557.13;4913824;29;20055;-71
2022/09/29 09:20:44;;;;;;;8.32;3.95;;;;;;;27.34;58.53;99545.50;4913859;29;20045;-75
2022/09/29 09:23:12;;;;;;;15.95;4.32;;;;;;;27.43;58.76;99545.97;4913946;29;20051;-74
2022/09/29 09:26:00;;;;;;;7.47;3.60;;;;;;;27.15;58.67;99549.00;4913855;29;20076;-72
2022/09/29 09:28:56;;;;;;;7.85;3.70;;;;;;;27.02;58.34;99555.84;4913654;29;20039;-77
2022/09/29 09:31:35;;;;;;;11.30;3.67;;;;;;;27.24;57.97;99550.38;4951743;29;20482;-71
2022/09/29 09:34:06;;;;;;;7.22;3.08;;;;;;;27.59;56.75;99559.34;4951565;29;20045;-75
2022/09/29 09:36:38;;;;;;;6.80;3.65;;;;;;;27.54;56.86;99526.00;4951634;29;20129;-74
2022/09/29 09:39:20;;;;;;;7.45;3.70;;;;;;;27.27;56.83;99534.34;4951892;29;20414;-71
2022/09/29 09:41:51;;;;;;;12.40;3.78;;;;;;;27.38;57.35;99555.03;4951499;29;20481;-74
2022/09/29 09:44:21;;;;;;;7.90;3.78;;;;;;;27.65;56.41;99555.50;4951243;28;20039;-75
2022/09/29 09:46:58;;;;;;;10.80;3.63;;;;;;;27.71;55.64;99555.22;4970295;28;20498;-72
2022/09/29 09:49:42;;;;;;;8.27;3.90;;;;;;;27.49;54.96;99497.09;4973303;28;20034;-71
2022/09/29 09:52:19;;;;;;;8.52;3.63;;;;;;;27.81;55.71;99552.13;5000490;28;20044;-72
2022/09/29 09:54:50;;;;;;;10.55;4.10;;;;;;;27.99;54.47;99550.34;5010912;28;20030;-71
2022/09/29 09:57:36;;;;;;;6.97;3.35;;;;;;;27.75;54.24;99542.66;5011922;28;20028;-75
2022/09/29 10:00:11;;;;;;;7.78;3.55;;;;;;;27.74;52.55;99533.88;5011627;28;20022;-69
2022/09/29 10:02:45;;;;;;;8.48;4.32;;;;;;;27.86;51.93;99528.88;5010771;28;20125;-68
2022/09/29 10:05:13;;;;;;;8.40;4.28;;;;;;;27.72;52.23;99526.94;5011732;28;20030;-75
2022/09/29 10:07:39;;;;;;;6.78;3.20;;;;;;;27.96;43.49;99518.69;5011775;28;20507;-69
2022/09/29 10:10:16;;;;;;;7.00;3.72;;;;;;;28.18;41.08;99482.16;5011504;28;20061;-71
2022/09/29 10:12:41;;;;;;;5.55;3.33;;;;;;;28.67;39.92;99525.66;5011489;28;20029;-67
2022/09/29 10:15:32;;;;;;;9.60;3.10;;;;;;;28.60;40.04;99490.63;5007090;28;20083;-71
2022/09/29 10:18:12;;;;;;;7.38;3.22;;;;;;;29.02;40.33;99517.59;5005655;28;20486;-73
2022/09/29 10:20:57;;;;;;;5.22;3.08;;;;;;;29.16;39.39;99515.03;5007284;28;20488;-72
2022/09/29 10:23:25;;;;;;;4.65;2.70;;;;;;;29.24;38.40;99508.44;5007793;28;20085;-73
2022/09/29 10:25:55;;;;;;;5.45;3.00;;;;;;;29.37;37.10;99507.69;5007805;28;20048;-70
2022/09/29 10:28:23;;;;;;;8.45;2.88;;;;;;;29.37;34.85;99506.81;5007655;28;20154;-74
2022/09/29 10:30:49;;;;;;;8.50;2.80;;;;;;;29.24;35.67;99508.44;5007512;28;20029;-72
2022/09/29 10:33:19;;;;;;;4.45;2.40;;;;;;;29.18;34.30;99494.53;5008241;28;20136;-70
2022/09/29 10:35:47;;;;;;;8.02;2.90;;;;;;;29.26;35.50;99502.09;5008137;28;20398;-73
2022/09/29 10:38:22;;;;;;;5.68;2.58;;;;;;;29.17;35.34;99468.91;4991878;28;20164;-72
2022/09/29 10:41:06;;;;;;;4.82;2.72;;;;;;;29.22;35.05;99479.25;5008412;28;20093;-72
2022/09/29 10:43:36;;;;;;;6.80;2.78;;;;;;;29.38;34.31;99497.91;5008423;28;20515;-73
2022/09/29 10:46:05;;;;;;;3.95;2.03;;;;;;;29.45;33.69;99496.59;5004730;28;20558;-73
2022/09/29 10:48:30;;;;;;;4.70;2.50;;;;;;;29.62;33.58;99494.78;5007749;28;20066;-73
2022/09/29 10:51:04;;;;;;;6.10;2.67;;;;;;;29.44;34.21;99457.66;4991104;28;20469;-73
2022/09/29 10:53:34;;;;;;;6.45;2.22;;;;;;;29.58;34.53;99488.78;5007244;28;20076;-72
2022/09/29 10:56:07;;;;;;;4.80;2.20;;;;;;;29.43;34.83;99476.38;5008007;28;20100;-72
2022/09/29 10:58:41;;;;;;;7.30;2.67;;;;;;;29.58;33.89;99491.44;5009320;28;20038;-72
2022/09/29 11:01:09;;;;;;;7.60;2.60;;;;;;;29.27;35.21;99495.81;5009972;28;20030;-73
2022/09/29 11:03:38;;;;;;;4.13;2.30;;;;;;;29.42;34.49;99495.94;5010075;28;20022;-72
2022/09/29 11:06:03;;;;;;;4.43;2.30;;;;;;;29.42;33.51;99498.59;5010258;28;20084;-72
2022/09/29 11:08:29;;;;;;;9.25;2.75;;;;;;;29.42;35.99;99477.31;5010582;28;20661;-72
2022/09/29 11:11:06;;;;;;;5.28;2.20;;;;;;;29.41;36.33;99495.09;5010213;28;20025;-72
2022/09/29 11:13:39;;;;;;;7.65;2.83;;;;;;;29.30;36.43;99468.25;4988155;28;20045;-73
2022/09/29 11:16:14;;;;;;;5.40;2.35;;;;;;;29.40;36.16;99485.38;4987798;28;20119;-73
2022/09/29 11:18:42;;;;;;;6.60;2.38;;;;;;;29.46;36.59;99474.41;4988268;28;20536;-73
2022/09/29 11:21:42;;;;;;;6.13;2.38;;;;;;;29.32;35.02;99485.84;4988091;28;20046;-72
2022/09/29 11:24:22;;;;;;;4.45;2.33;;;;;;;29.21;35.30;99466.94;4988237;28;20109;-72
2022/09/29 11:26:59;;;;;;;7.35;2.38;;;;;;;29.42;35.66;99485.28;4987378;28;20481;-72
2022/09/29 11:29:43;;;;;;;7.88;2.50;;;;;;;29.38;35.62;99487.25;4987534;28;20034;-72
2022/09/29 11:32:17;;;;;;;6.28;2.42;;;;;;;29.45;35.92;99477.16;4987484;28;20108;-72
2022/09/29 11:35:18;;;;;;;7.18;2.60;;;;;;;29.59;36.38;99487.84;4987333;28;20038;-71
2022/09/29 11:38:08;;;;;;;5.80;2.20;;;;;;;29.59;36.09;99479.00;4983484;28;20133;-72
2022/09/29 11:40:58;;;;;;;3.55;2.17;;;;;;;29.48;35.59;99483.13;4984841;28;20050;-73
2022/09/29 11:43:44;;;;;;;8.60;2.88;;;;;;;29.70;35.80;99480.09;4986245;28;20058;-72
2022/09/29 11:46:44;;;;;;;4.45;2.42;;;;;;;30.13;34.17;99476.72;4988249;28;20493;-73
2022/09/29 11:49:26;;;;;;;;;;;;;;;30.27;33.98;99477.66;4988067;28;20583;-69
2022/09/29 11:52:20;;;;;;;4.43;2.33;;;;;;;30.37;33.71;99480.63;5006021;28;19917;-72